createdAt,value
2015-12-27T00:00:12.054Z,13.2
2015-12-27T00:00:28.226Z,13.2
2015-12-27T00:00:44.054Z,13.2
2015-12-27T00:00:59.870Z,13.2
2015-12-27T00:01:15.620Z,13.2
2015-12-27T00:01:31.370Z,13.2
2015-12-27T00:01:47.089Z,13.2
2015-12-27T00:02:02.794Z,13.2
2015-12-27T00:02:19.028Z,13.2
2015-12-27T00:02:34.809Z,13.2
2015-12-27T00:02:50.559Z,13.2
2015-12-27T00:03:06.453Z,13.2
2015-12-27T00:03:22.344Z,13.2
2015-12-27T00:03:38.047Z,13.2
2015-12-27T00:03:53.953Z,13.2
2015-12-27T00:04:09.767Z,13.2
2015-12-27T00:04:25.564Z,13.2
2015-12-27T00:04:41.392Z,13.2
2015-12-27T00:04:57.096Z,13.2
2015-12-27T00:05:12.910Z,13.2
2015-12-27T00:05:28.691Z,13.2
2015-12-27T00:05:44.394Z,13.2
2015-12-27T00:06:00.098Z,13.2
2015-12-27T00:06:15.991Z,13.2
2015-12-27T00:06:31.741Z,13.2
2015-12-27T00:06:47.460Z,13.2
2015-12-27T00:07:03.304Z,13.2
2015-12-27T00:07:19.182Z,13.2
2015-12-27T00:07:34.900Z,13.2
2015-12-27T00:07:50.713Z,13.2
2015-12-27T00:08:06.807Z,13.2
2015-12-27T00:08:22.825Z,13.2
2015-12-27T00:08:39.310Z,13.2
2015-12-27T00:08:56.403Z,13.2
2015-12-27T00:09:12.218Z,13.2
2015-12-27T00:09:28.734Z,13.2
2015-12-27T00:09:44.546Z,13.2
2015-12-27T00:10:00.359Z,13.2
2015-12-27T00:10:16.112Z,13.2
2015-12-27T00:10:31.971Z,13.1
2015-12-27T00:10:47.924Z,13.2
2015-12-27T00:11:03.674Z,13.2
2015-12-27T00:11:19.505Z,13.2
2015-12-27T00:11:35.349Z,13.2
2015-12-27T00:11:51.193Z,13.2
2015-12-27T00:12:06.943Z,13.2
2015-12-27T00:12:22.695Z,13.2
2015-12-27T00:12:38.398Z,13.2
2015-12-27T00:12:54.101Z,13.2
2015-12-27T00:13:09.851Z,13.2
2015-12-27T00:13:25.635Z,13.2
2015-12-27T00:13:41.370Z,13.2
2015-12-27T00:13:57.307Z,13.2
2015-12-27T00:14:13.198Z,13.2
2015-12-27T00:14:29.044Z,13.2
2015-12-27T00:14:45.076Z,13.2
2015-12-27T00:15:01.216Z,13.2
2015-12-27T00:15:17.485Z,13.2
2015-12-27T00:15:33.313Z,13.2
2015-12-27T00:15:49.657Z,13.2
2015-12-27T00:16:06.532Z,13.2
2015-12-27T00:16:22.410Z,13.2
2015-12-27T00:16:38.425Z,13.2
2015-12-27T00:16:54.269Z,13.2
2015-12-27T00:17:10.050Z,13.2
2015-12-27T00:17:25.834Z,13.2
2015-12-27T00:17:41.646Z,13.2
2015-12-27T00:17:57.365Z,13.2
2015-12-27T00:18:13.099Z,13.2
2015-12-27T00:18:28.962Z,13.2
2015-12-27T00:18:44.727Z,13.2
2015-12-27T00:19:00.462Z,13.2
2015-12-27T00:19:16.212Z,13.2
2015-12-27T00:19:31.918Z,13.3
2015-12-27T00:19:47.668Z,13.3
2015-12-27T00:20:03.496Z,13.3
2015-12-27T00:20:19.374Z,13.3
2015-12-27T00:20:35.249Z,13.3
2015-12-27T00:20:51.093Z,13.3
2015-12-27T00:21:06.999Z,13.3
2015-12-27T00:21:22.845Z,13.3
2015-12-27T00:21:38.595Z,13.3
2015-12-27T00:21:54.485Z,13.3
2015-12-27T00:22:10.579Z,13.3
2015-12-27T00:22:26.347Z,13.2
2015-12-27T00:22:42.097Z,13.2
2015-12-27T00:22:58.034Z,13.3
2015-12-27T00:23:13.722Z,13.2
2015-12-27T00:23:29.429Z,13.2
2015-12-27T00:23:45.132Z,13.2
2015-12-27T00:24:00.835Z,13.2
2015-12-27T00:24:16.585Z,13.1
2015-12-27T00:24:32.462Z,13.2
2015-12-27T00:24:48.259Z,13.3
2015-12-27T00:25:04.071Z,13.3
2015-12-27T00:25:19.962Z,13.3
2015-12-27T00:25:35.949Z,13.3
2015-12-27T00:25:51.762Z,13.3
2015-12-27T00:26:08.481Z,13.3
2015-12-27T00:26:24.671Z,13.3
2015-12-27T00:26:40.546Z,13.3
2015-12-27T00:26:56.296Z,13.2
2015-12-27T00:27:12.281Z,13.2
2015-12-27T00:27:28.221Z,13.2
2015-12-27T00:27:43.940Z,13.2
2015-12-27T00:27:59.799Z,13.2
2015-12-27T00:28:15.549Z,13.2
2015-12-27T00:28:31.301Z,13.2
2015-12-27T00:28:47.051Z,13.2
2015-12-27T00:29:02.754Z,13.2
2015-12-27T00:29:18.473Z,13.2
2015-12-27T00:29:34.195Z,13.2
2015-12-27T00:29:50.085Z,13.2
2015-12-27T00:30:06.007Z,13.2
2015-12-27T00:30:21.726Z,13.2
2015-12-27T00:30:37.557Z,13.2
2015-12-27T00:30:53.479Z,13.2
2015-12-27T00:31:09.276Z,13.2
2015-12-27T00:31:25.354Z,13.2
2015-12-27T00:31:41.309Z,13.2
2015-12-27T00:31:57.231Z,13.2
2015-12-27T00:32:13.090Z,13.2
2015-12-27T00:32:28.887Z,13.2
2015-12-27T00:32:44.687Z,13.2
2015-12-27T00:33:00.422Z,13.2
2015-12-27T00:33:16.140Z,13.2
2015-12-27T00:33:31.922Z,13.2
2015-12-27T00:33:47.643Z,13.2
2015-12-27T00:34:03.393Z,13.2
2015-12-27T00:34:19.159Z,13.2
2015-12-27T00:34:34.943Z,13.2
2015-12-27T00:34:50.646Z,13.2
2015-12-27T00:35:07.381Z,13.2
2015-12-27T00:35:23.209Z,13.2
2015-12-27T00:35:39.211Z,13.2
2015-12-27T00:35:55.289Z,13.2
2015-12-27T00:36:11.226Z,13.2
2015-12-27T00:36:27.039Z,13.2
2015-12-27T00:36:42.979Z,13.2
2015-12-27T00:36:59.183Z,13.2
2015-12-27T00:37:15.011Z,13.2
2015-12-27T00:37:30.823Z,13.2
2015-12-27T00:37:47.404Z,13.2
2015-12-27T00:38:03.373Z,13.2
2015-12-27T00:38:19.357Z,13.2
2015-12-27T00:38:36.092Z,13.2
2015-12-27T00:38:51.797Z,13.2
2015-12-27T00:39:07.547Z,13.2
2015-12-27T00:39:24.016Z,13.2
2015-12-27T00:39:39.894Z,13.2
2015-12-27T00:39:55.644Z,13.2
2015-12-27T00:40:11.441Z,13.2
2015-12-27T00:40:27.253Z,13.2
2015-12-27T00:40:43.022Z,13.2
2015-12-27T00:40:58.740Z,13.2
2015-12-27T00:41:14.459Z,13.3
2015-12-27T00:41:30.256Z,13.3
2015-12-27T00:41:46.025Z,13.3
2015-12-27T00:42:02.603Z,13.3
2015-12-27T00:42:18.322Z,13.2
2015-12-27T00:42:34.040Z,13.2
2015-12-27T00:42:50.121Z,13.3
2015-12-27T00:43:06.043Z,13.3
2015-12-27T00:43:21.809Z,13.3
2015-12-27T00:43:37.762Z,13.3
2015-12-27T00:43:53.890Z,13.3
2015-12-27T00:44:10.609Z,13.3
2015-12-27T00:44:26.421Z,13.3
2015-12-27T00:44:42.734Z,13.3
2015-12-27T00:44:58.580Z,13.3
2015-12-27T00:45:14.439Z,13.3
2015-12-27T00:45:30.283Z,13.3
2015-12-27T00:45:46.114Z,13.3
2015-12-27T00:46:01.833Z,13.3
2015-12-27T00:46:17.676Z,13.3
2015-12-27T00:46:33.879Z,13.3
2015-12-27T00:46:49.694Z,13.3
2015-12-27T00:47:05.460Z,13.3
2015-12-27T00:47:21.194Z,13.3
2015-12-27T00:47:36.881Z,13.3
2015-12-27T00:47:52.650Z,13.3
2015-12-27T00:48:08.525Z,13.3
2015-12-27T00:48:24.291Z,13.3
2015-12-27T00:48:40.041Z,13.3
2015-12-27T00:48:55.934Z,13.3
2015-12-27T00:49:11.934Z,13.3
2015-12-27T00:49:27.762Z,13.3
2015-12-27T00:49:43.512Z,13.3
2015-12-27T00:49:59.656Z,13.3
2015-12-27T00:50:15.469Z,13.3
2015-12-27T00:50:31.281Z,13.3
2015-12-27T00:50:47.812Z,13.3
2015-12-27T00:51:03.689Z,13.3
2015-12-27T00:51:19.439Z,13.3
2015-12-27T00:51:35.236Z,13.3
2015-12-27T00:51:51.037Z,13.3
2015-12-27T00:52:06.756Z,13.3
2015-12-27T00:52:22.490Z,13.3
2015-12-27T00:52:38.193Z,13.3
2015-12-27T00:52:53.930Z,13.3
2015-12-27T00:53:09.648Z,13.3
2015-12-27T00:53:25.461Z,13.3
2015-12-27T00:53:41.305Z,13.3
2015-12-27T00:53:57.058Z,13.3
2015-12-27T00:54:12.917Z,13.3
2015-12-27T00:54:28.917Z,13.3
2015-12-27T00:54:44.636Z,13.3
2015-12-27T00:55:00.622Z,13.3
2015-12-27T00:55:16.575Z,13.3
2015-12-27T00:55:32.388Z,13.3
2015-12-27T00:55:48.138Z,13.3
2015-12-27T00:56:03.953Z,13.3
2015-12-27T00:56:19.750Z,13.3
2015-12-27T00:56:35.438Z,13.3
2015-12-27T00:56:51.156Z,13.3
2015-12-27T00:57:06.955Z,13.3
2015-12-27T00:57:22.658Z,13.1
2015-12-27T00:57:38.393Z,13.3
2015-12-27T00:57:54.130Z,13.3
2015-12-27T00:58:09.927Z,13.3
2015-12-27T00:58:25.661Z,13.3
2015-12-27T00:58:41.521Z,13.3
2015-12-27T00:58:57.539Z,13.3
2015-12-27T00:59:13.274Z,13.4
2015-12-27T00:59:29.149Z,13.3
2015-12-27T00:59:45.039Z,13.3
2015-12-27T01:00:00.823Z,13.3
2015-12-27T01:00:16.573Z,13.3
2015-12-27T01:00:32.526Z,13.3
2015-12-27T01:00:48.401Z,13.4
2015-12-27T01:01:04.139Z,13.3
2015-12-27T01:01:19.889Z,13.3
2015-12-27T01:01:35.639Z,13.3
2015-12-27T01:01:51.436Z,13.4
2015-12-27T01:02:07.141Z,13.3
2015-12-27T01:02:22.938Z,13.4
2015-12-27T01:02:38.766Z,13.3
2015-12-27T01:02:54.469Z,13.3
2015-12-27T01:03:10.456Z,13.4
2015-12-27T01:03:26.268Z,13.4
2015-12-27T01:03:42.065Z,13.4
2015-12-27T01:03:57.834Z,13.4
2015-12-27T01:04:13.802Z,13.3
2015-12-27T01:04:29.552Z,13.4
2015-12-27T01:04:45.224Z,13.4
2015-12-27T01:05:01.071Z,13.3
2015-12-27T01:05:16.930Z,13.4
2015-12-27T01:05:32.696Z,13.4
2015-12-27T01:05:48.462Z,13.4
2015-12-27T01:06:04.230Z,13.4
2015-12-27T01:06:19.965Z,13.4
2015-12-27T01:06:35.730Z,13.4
2015-12-27T01:06:51.543Z,13.4
2015-12-27T01:07:07.280Z,13.4
2015-12-27T01:07:23.046Z,13.4
2015-12-27T01:07:39.015Z,13.4
2015-12-27T01:07:54.968Z,13.4
2015-12-27T01:08:10.704Z,13.5
2015-12-27T01:08:26.470Z,13.5
2015-12-27T01:08:42.938Z,13.5
2015-12-27T01:08:58.973Z,13.4
2015-12-27T01:09:14.816Z,13.4
2015-12-27T01:09:30.801Z,13.4
2015-12-27T01:09:46.613Z,13.5
2015-12-27T01:10:02.398Z,13.5
2015-12-27T01:10:19.226Z,13.4
2015-12-27T01:10:35.069Z,13.5
2015-12-27T01:10:50.757Z,13.5
2015-12-27T01:11:06.696Z,13.5
2015-12-27T01:11:22.478Z,13.5
2015-12-27T01:11:38.243Z,13.5
2015-12-27T01:11:53.978Z,13.5
2015-12-27T01:12:09.778Z,13.5
2015-12-27T01:12:25.496Z,13.5
2015-12-27T01:12:41.231Z,13.5
2015-12-27T01:12:57.559Z,13.5
2015-12-27T01:13:13.265Z,13.5
2015-12-27T01:13:28.999Z,13.5
2015-12-27T01:13:44.859Z,13.5
2015-12-27T01:14:00.781Z,13.5
2015-12-27T01:14:16.612Z,13.5
2015-12-27T01:14:32.815Z,13.5
2015-12-27T01:14:48.971Z,13.5
2015-12-27T01:15:04.784Z,13.5
2015-12-27T01:15:21.068Z,13.5
2015-12-27T01:15:37.037Z,13.5
2015-12-27T01:15:52.974Z,13.5
2015-12-27T01:16:08.805Z,13.5
2015-12-27T01:16:24.774Z,13.5
2015-12-27T01:16:40.633Z,13.5
2015-12-27T01:16:56.368Z,13.5
2015-12-27T01:17:12.214Z,13.5
2015-12-27T01:17:27.902Z,13.5
2015-12-27T01:17:43.668Z,13.5
2015-12-27T01:17:59.449Z,13.5
2015-12-27T01:18:15.201Z,13.5
2015-12-27T01:18:30.888Z,13.5
2015-12-27T01:18:46.607Z,13.5
2015-12-27T01:19:03.185Z,13.5
2015-12-27T01:19:19.031Z,13.5
2015-12-27T01:19:34.734Z,13.5
2015-12-27T01:19:50.656Z,13.5
2015-12-27T01:20:06.578Z,13.5
2015-12-27T01:20:22.346Z,13.5
2015-12-27T01:20:38.206Z,13.5
2015-12-27T01:20:54.190Z,13.5
2015-12-27T01:21:10.034Z,13.5
2015-12-27T01:21:25.818Z,13.5
2015-12-27T01:21:41.662Z,13.5
2015-12-27T01:21:51.771Z,13.5
2015-12-27T01:22:22.181Z,13.5
2015-12-27T01:22:22.181Z,13.5
2015-12-27T01:22:28.727Z,13.3
2015-12-27T01:22:44.431Z,13.5
2015-12-27T01:23:00.181Z,13.5
2015-12-27T01:23:15.868Z,13.5
2015-12-27T01:23:32.527Z,13.5
2015-12-27T01:23:48.324Z,13.5
2015-12-27T01:24:04.059Z,13.6
2015-12-27T01:24:19.921Z,13.5
2015-12-27T01:24:35.671Z,13.5
2015-12-27T01:24:51.390Z,13.6
2015-12-27T01:25:08.452Z,13.6
2015-12-27T01:25:24.298Z,13.6
2015-12-27T01:25:40.079Z,13.6
2015-12-27T01:25:55.923Z,13.6
2015-12-27T01:26:12.001Z,13.6
2015-12-27T01:26:27.988Z,13.6
2015-12-27T01:26:44.238Z,13.6
2015-12-27T01:27:00.160Z,13.6
2015-12-27T01:27:15.942Z,13.6
2015-12-27T01:27:31.695Z,13.7
2015-12-27T01:27:47.695Z,13.6
2015-12-27T01:28:03.507Z,13.7
2015-12-27T01:28:19.226Z,13.7
2015-12-27T01:28:34.993Z,13.6
2015-12-27T01:28:50.728Z,13.7
2015-12-27T01:29:06.478Z,13.6
2015-12-27T01:29:22.212Z,13.7
2015-12-27T01:29:38.575Z,13.7
2015-12-27T01:29:54.325Z,13.6
2015-12-27T01:30:10.028Z,13.6
2015-12-27T01:30:27.046Z,13.7
2015-12-27T01:30:42.781Z,13.7
2015-12-27T01:30:58.499Z,13.7
2015-12-27T01:31:14.374Z,13.7
2015-12-27T01:31:30.189Z,13.7
2015-12-27T01:31:46.080Z,13.7
2015-12-27T01:32:01.830Z,13.7
2015-12-27T01:32:17.955Z,13.7
2015-12-27T01:32:33.754Z,13.7
2015-12-27T01:32:49.567Z,13.7
2015-12-27T01:33:05.442Z,13.5
2015-12-27T01:33:21.239Z,13.7
2015-12-27T01:33:36.992Z,13.7
2015-12-27T01:33:52.711Z,13.7
2015-12-27T01:34:08.492Z,13.7
2015-12-27T01:34:24.179Z,13.7
2015-12-27T01:34:39.916Z,13.7
2015-12-27T01:34:55.634Z,13.7
2015-12-27T01:35:11.353Z,13.7
2015-12-27T01:35:27.041Z,13.7
2015-12-27T01:35:43.670Z,13.7
2015-12-27T01:35:59.513Z,13.7
2015-12-27T01:36:15.263Z,13.7
2015-12-27T01:36:31.312Z,13.8
2015-12-27T01:36:47.328Z,13.7
2015-12-27T01:37:03.594Z,13.8
2015-12-27T01:37:19.844Z,13.7
2015-12-27T01:37:35.753Z,13.7
2015-12-27T01:37:51.503Z,13.8
2015-12-27T01:38:07.487Z,13.7
2015-12-27T01:38:23.675Z,13.7
2015-12-27T01:38:39.506Z,13.7
2015-12-27T01:38:55.365Z,13.8
2015-12-27T01:39:11.287Z,13.8
2015-12-27T01:39:28.100Z,13.7
2015-12-27T01:39:43.837Z,13.8
2015-12-27T01:40:00.540Z,13.8
2015-12-27T01:40:16.493Z,13.8
2015-12-27T01:40:32.196Z,13.8
2015-12-27T01:40:48.714Z,13.8
2015-12-27T01:41:04.714Z,13.8
2015-12-27T01:41:20.464Z,13.8
2015-12-27T01:41:36.401Z,13.8
2015-12-27T01:41:53.076Z,13.8
2015-12-27T01:42:08.779Z,13.8
2015-12-27T01:42:24.483Z,13.8
2015-12-27T01:42:40.264Z,13.8
2015-12-27T01:42:56.001Z,13.8
2015-12-27T01:43:11.689Z,13.8
2015-12-27T01:43:27.642Z,13.8
2015-12-27T01:43:43.348Z,13.8
2015-12-27T01:43:59.067Z,13.8
2015-12-27T01:44:15.020Z,13.8
2015-12-27T01:44:30.989Z,13.9
2015-12-27T01:44:47.053Z,13.9
2015-12-27T01:45:02.866Z,13.9
2015-12-27T01:45:18.741Z,13.9
2015-12-27T01:45:34.537Z,13.8
2015-12-27T01:45:50.400Z,13.9
2015-12-27T01:46:07.025Z,13.8
2015-12-27T01:46:22.884Z,13.8
2015-12-27T01:46:38.681Z,13.8
2015-12-27T01:46:54.559Z,13.8
2015-12-27T01:47:10.403Z,13.8
2015-12-27T01:47:26.137Z,13.6
2015-12-27T01:47:42.793Z,13.8
2015-12-27T01:47:58.593Z,13.8
2015-12-27T01:48:14.328Z,13.8
2015-12-27T01:48:30.078Z,13.8
2015-12-27T01:48:45.828Z,13.8
2015-12-27T01:49:01.564Z,13.8
2015-12-27T01:49:17.283Z,13.8
2015-12-27T01:49:33.017Z,13.6
2015-12-27T01:49:48.801Z,13.8
2015-12-27T01:50:04.583Z,13.8
2015-12-27T01:50:20.473Z,13.8
2015-12-27T01:50:36.317Z,13.8
2015-12-27T01:50:52.569Z,13.8
2015-12-27T01:51:08.413Z,13.8
2015-12-27T01:51:25.022Z,13.8
2015-12-27T01:51:41.413Z,13.8
2015-12-27T01:51:57.353Z,13.8
2015-12-27T01:52:13.338Z,13.8
2015-12-27T01:52:29.478Z,13.8
2015-12-27T01:52:45.838Z,13.8
2015-12-27T01:53:02.231Z,13.8
2015-12-27T01:53:18.559Z,13.8
2015-12-27T01:53:34.497Z,13.8
2015-12-27T01:53:50.875Z,13.8
2015-12-27T01:54:06.703Z,13.8
2015-12-27T01:54:22.562Z,13.8
2015-12-27T01:54:38.562Z,13.8
2015-12-27T01:54:54.346Z,13.8
2015-12-27T01:55:10.064Z,13.8
2015-12-27T01:55:25.814Z,13.8
2015-12-27T01:55:41.752Z,13.8
2015-12-27T01:55:57.458Z,13.7
2015-12-27T01:56:13.177Z,13.7
2015-12-27T01:56:28.942Z,13.7
2015-12-27T01:56:44.708Z,13.7
2015-12-27T01:57:00.461Z,13.7
2015-12-27T01:57:16.774Z,13.7
2015-12-27T01:57:32.570Z,13.7
2015-12-27T01:57:48.274Z,13.7
2015-12-27T01:58:04.152Z,13.7
2015-12-27T01:58:20.136Z,13.7
2015-12-27T01:58:35.917Z,13.7
2015-12-27T01:58:51.745Z,13.7
2015-12-27T01:59:08.030Z,13.7
2015-12-27T01:59:23.858Z,13.7
2015-12-27T01:59:39.655Z,13.7
2015-12-27T01:59:55.641Z,13.7
2015-12-27T02:00:11.563Z,13.7
2015-12-27T02:00:27.328Z,13.7
2015-12-27T02:00:43.125Z,13.7
2015-12-27T02:00:58.885Z,13.7
2015-12-27T02:01:14.579Z,13.7
2015-12-27T02:01:30.329Z,13.6
2015-12-27T02:01:46.142Z,13.6
2015-12-27T02:02:01.895Z,13.6
2015-12-27T02:02:17.614Z,13.6
2015-12-27T02:02:33.676Z,13.7
2015-12-27T02:02:49.489Z,13.6
2015-12-27T02:03:05.226Z,13.6
2015-12-27T02:03:21.023Z,13.7
2015-12-27T02:03:38.585Z,13.6
2015-12-27T02:03:54.289Z,13.6
2015-12-27T02:04:10.119Z,13.6
2015-12-27T02:04:25.916Z,13.6
2015-12-27T02:04:41.869Z,13.6
2015-12-27T02:04:57.697Z,13.6
2015-12-27T02:05:14.090Z,13.6
2015-12-27T02:05:29.840Z,13.6
2015-12-27T02:05:45.622Z,13.6
2015-12-27T02:06:01.762Z,13.7
2015-12-27T02:06:17.672Z,13.7
2015-12-27T02:06:33.406Z,13.6
2015-12-27T02:06:49.547Z,13.6
2015-12-27T02:07:05.314Z,13.7
2015-12-27T02:07:21.033Z,13.6
2015-12-27T02:07:36.752Z,13.7
2015-12-27T02:07:52.502Z,13.6
2015-12-27T02:08:08.270Z,13.6
2015-12-27T02:08:23.989Z,13.7
2015-12-27T02:08:39.880Z,13.6
2015-12-27T02:08:55.880Z,13.7
2015-12-27T02:09:11.601Z,13.6
2015-12-27T02:09:27.383Z,13.7
2015-12-27T02:09:44.086Z,13.7
2015-12-27T02:09:59.976Z,13.7
2015-12-27T02:10:15.808Z,13.7
2015-12-27T02:10:31.870Z,13.7
2015-12-27T02:10:48.433Z,13.7
2015-12-27T02:11:04.386Z,13.7
2015-12-27T02:11:20.325Z,13.7
2015-12-27T02:11:36.138Z,13.7
2015-12-27T02:11:51.903Z,13.6
2015-12-27T02:12:07.825Z,13.6
2015-12-27T02:12:23.688Z,13.5
2015-12-27T02:12:39.422Z,13.6
2015-12-27T02:12:55.219Z,13.6
2015-12-27T02:13:10.969Z,13.6
2015-12-27T02:13:26.675Z,13.6
2015-12-27T02:13:42.441Z,13.6
2015-12-27T02:13:58.175Z,13.6
2015-12-27T02:14:13.927Z,13.6
2015-12-27T02:14:29.661Z,13.6
2015-12-27T02:14:45.599Z,13.6
2015-12-27T02:15:01.443Z,13.6
2015-12-27T02:15:17.228Z,13.6
2015-12-27T02:15:33.134Z,13.6
2015-12-27T02:15:49.181Z,13.6
2015-12-27T02:16:05.212Z,13.6
2015-12-27T02:16:21.059Z,13.6
2015-12-27T02:16:37.356Z,13.6
2015-12-27T02:16:53.184Z,13.6
2015-12-27T02:17:09.121Z,13.6
2015-12-27T02:17:25.405Z,13.6
2015-12-27T02:17:41.311Z,13.6
2015-12-27T02:17:57.030Z,13.6
2015-12-27T02:18:12.920Z,13.6
2015-12-27T02:18:28.783Z,13.6
2015-12-27T02:18:44.548Z,13.6
2015-12-27T02:19:00.267Z,13.6
2015-12-27T02:19:15.955Z,13.6
2015-12-27T02:19:31.675Z,13.5
2015-12-27T02:19:47.441Z,13.6
2015-12-27T02:20:03.925Z,13.6
2015-12-27T02:20:20.519Z,13.6
2015-12-27T02:20:36.225Z,13.6
2015-12-27T02:20:51.975Z,13.6
2015-12-27T02:21:08.506Z,13.6
2015-12-27T02:21:24.259Z,13.6
2015-12-27T02:21:40.447Z,13.6
2015-12-27T02:21:56.588Z,13.6
2015-12-27T02:22:12.338Z,13.6
2015-12-27T02:22:28.152Z,13.6
2015-12-27T02:22:44.136Z,13.6
2015-12-27T02:23:00.355Z,13.6
2015-12-27T02:23:16.949Z,13.6
2015-12-27T02:23:33.139Z,13.6
2015-12-27T02:23:48.952Z,13.5
2015-12-27T02:24:04.811Z,13.5
2015-12-27T02:24:20.686Z,13.5
2015-12-27T02:24:36.580Z,13.5
2015-12-27T02:24:52.361Z,13.5
2015-12-27T02:25:08.221Z,13.5
2015-12-27T02:25:24.127Z,13.5
2015-12-27T02:25:39.864Z,13.5
2015-12-27T02:25:55.677Z,13.4
2015-12-27T02:26:11.427Z,13.4
2015-12-27T02:26:27.180Z,13.4
2015-12-27T02:26:42.867Z,13.4
2015-12-27T02:26:58.648Z,13.4
2015-12-27T02:27:14.367Z,13.4
2015-12-27T02:27:30.104Z,13.4
2015-12-27T02:27:46.088Z,13.4
2015-12-27T02:28:01.947Z,13.3
2015-12-27T02:28:17.916Z,13.3
2015-12-27T02:28:33.762Z,13.3
2015-12-27T02:28:51.387Z,13.3
2015-12-27T02:29:07.137Z,13.3
2015-12-27T02:29:22.934Z,13.2
2015-12-27T02:29:38.860Z,13.2
2015-12-27T02:29:54.625Z,13.2
2015-12-27T02:30:10.438Z,13.2
2015-12-27T02:30:26.266Z,13.2
2015-12-27T02:30:42.238Z,13.2
2015-12-27T02:30:57.956Z,13.2
2015-12-27T02:31:13.925Z,13.2
2015-12-27T02:31:29.784Z,13.2
2015-12-27T02:31:45.536Z,13.2
2015-12-27T02:32:01.302Z,13.2
2015-12-27T02:32:17.052Z,13.2
2015-12-27T02:32:32.771Z,13.1
2015-12-27T02:32:48.461Z,13.1
2015-12-27T02:33:05.071Z,13.1
2015-12-27T02:33:20.868Z,13.1
2015-12-27T02:33:36.573Z,13.1
2015-12-27T02:33:52.604Z,13.1
2015-12-27T02:34:08.416Z,13.1
2015-12-27T02:34:24.166Z,13.1
2015-12-27T02:34:40.060Z,13.1
2015-12-27T02:34:55.998Z,13.1
2015-12-27T02:35:11.841Z,13.1
2015-12-27T02:35:27.623Z,13.1
2015-12-27T02:35:43.766Z,13.1
2015-12-27T02:35:59.860Z,13.1
2015-12-27T02:36:15.563Z,13.1
2015-12-27T02:36:31.844Z,13.1
2015-12-27T02:36:47.722Z,13.1
2015-12-27T02:37:03.472Z,13.1
2015-12-27T02:37:19.207Z,13.1
2015-12-27T02:37:35.066Z,13.1
2015-12-27T02:37:50.818Z,13.1
2015-12-27T02:38:06.537Z,13.1
2015-12-27T02:38:22.240Z,13
2015-12-27T02:38:37.974Z,13
2015-12-27T02:38:53.665Z,13
2015-12-27T02:39:10.009Z,13
2015-12-27T02:39:25.962Z,13
2015-12-27T02:39:41.715Z,13
2015-12-27T02:39:57.605Z,13
2015-12-27T02:40:14.293Z,13
2015-12-27T02:40:30.043Z,13
2015-12-27T02:40:46.046Z,13
2015-12-27T02:41:02.765Z,13
2015-12-27T02:41:18.593Z,13
2015-12-27T02:41:34.405Z,13
2015-12-27T02:41:50.393Z,13
2015-12-27T02:42:06.314Z,12.9
2015-12-27T02:42:22.080Z,13
2015-12-27T02:42:38.611Z,13
2015-12-27T02:42:54.488Z,12.9
2015-12-27T02:43:10.191Z,12.9
2015-12-27T02:43:26.051Z,12.9
2015-12-27T02:43:42.113Z,12.9
2015-12-27T02:43:57.835Z,12.9
2015-12-27T02:44:13.741Z,12.9
2015-12-27T02:44:29.476Z,12.9
2015-12-27T02:44:45.194Z,12.9
2015-12-27T02:45:00.916Z,12.9
2015-12-27T02:45:16.697Z,12.9
2015-12-27T02:45:33.463Z,12.9
2015-12-27T02:45:49.185Z,12.9
2015-12-27T02:46:05.044Z,12.9
2015-12-27T02:46:20.872Z,12.9
2015-12-27T02:46:36.607Z,12.9
2015-12-27T02:46:52.531Z,12.9
2015-12-27T02:47:08.609Z,12.9
2015-12-27T02:47:24.421Z,12.9
2015-12-27T02:47:40.406Z,12.9
2015-12-27T02:47:56.377Z,12.8
2015-12-27T02:48:12.221Z,12.9
2015-12-27T02:48:28.159Z,12.8
2015-12-27T02:48:44.018Z,12.8
2015-12-27T02:48:59.942Z,12.8
2015-12-27T02:49:15.645Z,12.8
2015-12-27T02:49:31.395Z,12.8
2015-12-27T02:49:47.164Z,12.8
2015-12-27T02:50:02.867Z,12.8
2015-12-27T02:50:18.601Z,12.8
2015-12-27T02:50:34.351Z,12.8
2015-12-27T02:50:50.073Z,12.8
2015-12-27T02:51:05.792Z,12.8
2015-12-27T02:51:21.713Z,12.8
2015-12-27T02:51:37.542Z,12.8
2015-12-27T02:51:53.309Z,12.8
2015-12-27T02:52:09.684Z,12.7
2015-12-27T02:52:25.903Z,12.8
2015-12-27T02:52:41.684Z,12.7
2015-12-27T02:52:57.641Z,12.7
2015-12-27T02:53:13.626Z,12.7
2015-12-27T02:53:29.438Z,12.7
2015-12-27T02:53:45.219Z,12.7
2015-12-27T02:54:01.081Z,12.7
2015-12-27T02:54:16.925Z,12.7
2015-12-27T02:54:32.675Z,12.7
2015-12-27T02:54:48.412Z,12.7
2015-12-27T02:55:04.631Z,12.7
2015-12-27T02:55:20.381Z,12.7
2015-12-27T02:55:36.099Z,12.7
2015-12-27T02:55:51.898Z,12.7
2015-12-27T02:56:07.648Z,12.7
2015-12-27T02:56:23.367Z,12.7
2015-12-27T02:56:39.180Z,12.7
2015-12-27T02:56:55.354Z,12.7
2015-12-27T02:57:11.229Z,12.7
2015-12-27T02:57:27.089Z,12.7
2015-12-27T02:57:42.948Z,12.7
2015-12-27T02:57:58.764Z,12.7
2015-12-27T02:58:14.701Z,12.7
2015-12-27T02:58:31.373Z,12.7
2015-12-27T02:58:47.186Z,12.7
2015-12-27T02:59:02.969Z,12.7
2015-12-27T02:59:19.578Z,12.6
2015-12-27T02:59:35.344Z,12.7
2015-12-27T02:59:51.094Z,12.6
2015-12-27T03:00:08.237Z,12.6
2015-12-27T03:00:23.987Z,12.7
2015-12-27T03:00:39.769Z,12.6
2015-12-27T03:00:56.178Z,12.6
2015-12-27T03:01:12.412Z,12.6
2015-12-27T03:01:28.225Z,12.4
2015-12-27T03:01:43.959Z,12.6
2015-12-27T03:01:59.822Z,12.5
2015-12-27T03:02:15.556Z,12.7
2015-12-27T03:02:31.243Z,12.6
2015-12-27T03:02:47.103Z,12.6
2015-12-27T03:03:02.870Z,12.6
2015-12-27T03:03:18.589Z,12.7
2015-12-27T03:03:34.417Z,12.6
2015-12-27T03:03:50.558Z,12.6
2015-12-27T03:04:06.312Z,12.6
2015-12-27T03:04:22.265Z,12.6
2015-12-27T03:04:38.406Z,12.6
2015-12-27T03:04:54.218Z,12.6
2015-12-27T03:05:10.111Z,12.6
2015-12-27T03:05:26.220Z,12.6
2015-12-27T03:05:42.142Z,12.6
2015-12-27T03:05:58.064Z,12.6
2015-12-27T03:06:14.348Z,12.4
2015-12-27T03:06:30.458Z,12.6
2015-12-27T03:06:46.208Z,12.6
2015-12-27T03:07:02.819Z,12.6
2015-12-27T03:07:18.647Z,12.6
2015-12-27T03:07:34.366Z,12.6
2015-12-27T03:07:50.210Z,12.6
2015-12-27T03:08:06.260Z,12.6
2015-12-27T03:08:22.010Z,12.6
2015-12-27T03:08:37.792Z,12.6
2015-12-27T03:08:53.557Z,12.6
2015-12-27T03:09:09.325Z,12.6
2015-12-27T03:09:25.059Z,12.6
2015-12-27T03:09:40.887Z,12.6
2015-12-27T03:09:56.747Z,12.6
2015-12-27T03:10:12.484Z,12.6
2015-12-27T03:10:28.609Z,12.5
2015-12-27T03:10:44.625Z,12.5
2015-12-27T03:11:00.359Z,12.5
2015-12-27T03:11:16.236Z,12.5
2015-12-27T03:11:32.564Z,12.5
2015-12-27T03:11:48.517Z,12.5
2015-12-27T03:12:04.439Z,12.5
2015-12-27T03:12:20.443Z,12.5
2015-12-27T03:12:36.240Z,12.6
2015-12-27T03:12:51.928Z,12.5
2015-12-27T03:13:07.725Z,12.5
2015-12-27T03:13:23.523Z,12.5
2015-12-27T03:13:39.320Z,12.5
2015-12-27T03:13:55.055Z,12.5
2015-12-27T03:14:10.805Z,12.5
2015-12-27T03:14:26.511Z,12.5
2015-12-27T03:14:42.230Z,12.5
2015-12-27T03:14:58.011Z,12.5
2015-12-27T03:15:13.855Z,12.4
2015-12-27T03:15:29.608Z,12.5
2015-12-27T03:15:45.451Z,12.5
2015-12-27T03:16:01.342Z,12.5
2015-12-27T03:16:17.344Z,12.5
2015-12-27T03:16:33.406Z,12.5
2015-12-27T03:16:49.781Z,12.5
2015-12-27T03:17:05.641Z,12.5
2015-12-27T03:17:21.394Z,12.5
2015-12-27T03:17:37.659Z,12.5
2015-12-27T03:17:53.503Z,12.5
2015-12-27T03:18:09.284Z,12.5
2015-12-27T03:18:25.897Z,12.5
2015-12-27T03:18:42.116Z,12.5
2015-12-27T03:18:57.912Z,12.5
2015-12-27T03:19:13.756Z,12.5
2015-12-27T03:19:31.633Z,12.5
2015-12-27T03:19:47.461Z,12.4
2015-12-27T03:20:03.336Z,12.4
2015-12-27T03:20:19.449Z,12.4
2015-12-27T03:20:35.183Z,12.4
2015-12-27T03:20:51.027Z,12.4
2015-12-27T03:21:06.824Z,12.4
2015-12-27T03:21:22.592Z,12.4
2015-12-27T03:21:38.327Z,12.4
2015-12-27T03:21:54.045Z,12.4
2015-12-27T03:22:09.749Z,12.4
2015-12-27T03:22:25.423Z,12.4
2015-12-27T03:22:41.720Z,12.4
2015-12-27T03:22:57.611Z,12.4
2015-12-27T03:23:13.377Z,12.4
2015-12-27T03:23:29.269Z,12.4
2015-12-27T03:23:45.722Z,12.4
2015-12-27T03:24:01.441Z,12.4
2015-12-27T03:24:17.629Z,12.4
2015-12-27T03:24:33.710Z,12.4
2015-12-27T03:24:49.632Z,12.4
2015-12-27T03:25:05.569Z,12.4
2015-12-27T03:25:21.632Z,12.4
2015-12-27T03:25:37.697Z,12.4
2015-12-27T03:25:53.431Z,12.4
2015-12-27T03:26:09.275Z,12.4
2015-12-27T03:26:25.121Z,12.4
2015-12-27T03:26:40.855Z,12.4
2015-12-27T03:26:56.621Z,12.4
2015-12-27T03:27:12.480Z,12.4
2015-12-27T03:27:28.234Z,12.4
2015-12-27T03:27:43.984Z,12.4
2015-12-27T03:27:59.812Z,12.4
2015-12-27T03:28:15.531Z,12.4
2015-12-27T03:28:31.268Z,12.4
2015-12-27T03:28:47.221Z,12.4
2015-12-27T03:29:03.064Z,12.4
2015-12-27T03:29:18.783Z,12.4
2015-12-27T03:29:34.661Z,12.4
2015-12-27T03:29:51.021Z,12.4
2015-12-27T03:30:06.927Z,12.4
2015-12-27T03:30:22.864Z,12.4
2015-12-27T03:30:38.930Z,12.3
2015-12-27T03:30:55.024Z,12.3
2015-12-27T03:31:10.852Z,12.3
2015-12-27T03:31:26.744Z,12.3
2015-12-27T03:31:42.619Z,12.3